Saturday, April 19, 2014
11:59 UTC
  |  Log In   |  Register Free
Airport Search:

Livermore Municipal Airport
(KLVK)

FAA data valid effective April 3, 2014 until May 29, 2014 (unless otherwise noted).

 
 
 
 
 
 
 
 
 
 
 
 
 
 

Current Aviation Weather for Livermore Municipal Airport (KLVK)

The most recent METAR observation for KLVK was updated at: 1053 UTC
METAR Summary (Translated METAR)
KLVK
191053Z AUTO 27011KT 10SM CLR 10/07 A2998 RMK AO2 SLP149 T01000072
KHWD
(14.5 nm SW from KLVK)
191054Z AUTO 27006KT 10SM BKN015 11/08 A2999 RMK AO2 SLP167 T01060078 $
TAF Summary (Translated TAF)
KOAK
(19.1 nm NW from KLVK)
191057Z 1911/2012 26006KT P6SM BKN012 FM191700 27007KT P6SM SCT015 BKN250 FM191900 26012KT P6SM FEW015 FM192100 27015KT P6SM SKC FM200800 29005KT P6SM BKN010
  Airport Weather Conditions for KLVK

 Current Weather at LVK
50° F
Fair
West winds at 12.7 mph
LVK NOAA Radar

Pressure: 29.98 in
Humidity: 83%
Wind: West at 12.7 MPH (11 KT)
Dew Point: 45.0°F
Visibility: 10.00 mi


Airport Weather Forecast for KLVK

Translated METAR and TAF for KLVK
Translated METAR for KLVK (1159 UTC 19 April 2014)
found at http://aviationweather.gov/adds/metars/
 
METAR text: KLVK 191153Z AUTO 27007KT 10SM CLR 09/07 A2999 RMK AO2 SLP152 T00940072 10122 20089 51015
Conditions at: KLVK (LIVERMORE , CA, US) observed 1153 UTC 19 April 2014
Temperature: 9.4°C (49°F)
Dewpoint: 7.2°C (45°F) [RH = 86%]
Pressure (altimeter): 29.99 inches Hg (1015.7 mb)
[Sea-level pressure: 1015.2 mb]
Winds: from the W (270 degrees) at 8 MPH (7 knots; 3.6 m/s)
Visibility: 10 or more miles (16+ km)
Ceiling: at least 12,000 feet AGL
Clouds: sky clear below 12,000 feet AGL
Weather: automated observation with no human augmentation;
there may or may not be significant weather present at this time
Translated TAF for KLVK

There is no translated TAF available for this airport

Find All Airport Services Find A Hotel Find A Rental Car Find A Golf Course Find A Restaurant $100 Hamburger



FBO's on the Field
FBO Company Facility Photos Services Transportation Aviation Fuel Prices: Prices include tax
Catering Weather Repair Courtesy Rental Type 100LL JetA JetA+ MOGAS 8087
 
Livermore Municipal Airport

This FBO has not yet been rated
FS:Ascent
Last Updated: Apr-08
Login to update fuel prices
SS:
Contact Livermore Municipal AirportMore FBO Information
 
Add another FBO Facility Photos Catering Weather Repair Courtesy Rental Type 100LL JetA JetA+ MOGAS 8087
Services Transportation Aviation Fuel Prices: Prices include tax


GlobalAir.com Airport Resource Center model-print
model-print
model-print
model-print